createdAt,value
2018-03-28T00:00:11.840Z,998.72
2018-03-28T00:01:11.791Z,998.73
2018-03-28T00:02:11.744Z,998.71
2018-03-28T00:03:11.699Z,998.73
2018-03-28T00:04:11.657Z,998.66
2018-03-28T00:05:11.908Z,998.74
2018-03-28T00:06:11.562Z,998.71
2018-03-28T00:07:11.517Z,998.73
2018-03-28T00:08:11.474Z,998.70
2018-03-28T00:09:11.477Z,998.67
2018-03-28T00:10:11.381Z,998.67
2018-03-28T00:11:11.642Z,998.70
2018-03-28T00:12:11.292Z,998.65
2018-03-28T00:13:11.244Z,998.69
2018-03-28T00:14:11.198Z,998.63
2018-03-28T00:15:11.154Z,998.64
2018-03-28T00:16:11.110Z,998.59
2018-03-28T00:17:11.461Z,998.57
2018-03-28T00:18:11.017Z,998.57
2018-03-28T00:19:10.976Z,998.56
2018-03-28T00:20:10.924Z,998.58
2018-03-28T00:21:10.882Z,998.55
2018-03-28T00:22:10.836Z,998.50
2018-03-28T00:23:10.842Z,998.56
2018-03-28T00:24:11.045Z,998.54
2018-03-28T00:25:10.698Z,998.53
2018-03-28T00:26:10.653Z,998.44
2018-03-28T00:27:10.607Z,998.41
2018-03-28T00:28:10.565Z,998.37
2018-03-28T00:29:10.519Z,998.38
2018-03-28T00:30:10.473Z,998.40
2018-03-28T00:31:10.727Z,998.37
2018-03-28T00:32:10.379Z,998.35
2018-03-28T00:33:10.335Z,998.33
2018-03-28T00:34:10.289Z,998.32
2018-03-28T00:35:10.248Z,998.35
2018-03-28T00:36:10.198Z,998.33
2018-03-28T00:37:10.154Z,998.35
2018-03-28T00:38:10.415Z,998.38
2018-03-28T00:39:10.064Z,998.32
2018-03-28T00:40:10.015Z,998.30
2018-03-28T00:41:09.973Z,998.33
2018-03-28T00:42:09.930Z,998.26
2018-03-28T00:43:09.879Z,998.29
2018-03-28T00:44:09.834Z,998.29
2018-03-28T00:45:10.089Z,998.23
2018-03-28T00:46:09.744Z,998.26
2018-03-28T00:47:09.704Z,998.29
2018-03-28T00:48:09.655Z,998.22
2018-03-28T00:49:09.660Z,998.22
2018-03-28T00:50:09.566Z,998.26
2018-03-28T00:51:09.520Z,998.25
2018-03-28T00:52:09.779Z,998.24
2018-03-28T00:53:09.429Z,998.25
2018-03-28T00:54:09.379Z,998.22
2018-03-28T00:55:09.386Z,998.20
2018-03-28T00:56:09.291Z,998.20
2018-03-28T00:57:09.243Z,998.20
2018-03-28T00:58:09.505Z,998.20
2018-03-28T00:59:09.153Z,998.22
2018-03-28T01:00:09.112Z,998.19
2018-03-28T01:01:09.114Z,998.22
2018-03-28T01:02:09.018Z,998.22
2018-03-28T01:03:08.972Z,998.18
2018-03-28T01:04:09.260Z,998.17
2018-03-28T01:05:08.880Z,998.18
2018-03-28T01:06:08.835Z,998.23
2018-03-28T01:07:08.795Z,998.18
2018-03-28T01:08:08.743Z,998.17
2018-03-28T01:09:08.704Z,998.16
2018-03-28T01:10:08.957Z,998.13
2018-03-28T01:11:08.638Z,998.19
2018-03-28T01:12:08.631Z,998.17
2018-03-28T01:13:08.536Z,998.14
2018-03-28T01:14:08.497Z,998.14
2018-03-28T01:15:08.445Z,998.12
2018-03-28T01:16:08.702Z,998.13
2018-03-28T01:17:08.359Z,998.13
2018-03-28T01:18:08.510Z,998.18
2018-03-28T01:19:08.296Z,998.14
2018-03-28T01:20:08.229Z,998.14
2018-03-28T01:21:08.165Z,998.14
2018-03-28T01:22:08.442Z,998.17
2018-03-28T01:23:08.079Z,998.17
2018-03-28T01:24:08.078Z,998.17
2018-03-28T01:25:07.984Z,998.22
2018-03-28T01:26:07.942Z,998.17
2018-03-28T01:27:07.895Z,998.16
2018-03-28T01:28:08.139Z,998.12
2018-03-28T01:29:07.793Z,998.08
2018-03-28T01:30:07.747Z,998.09
2018-03-28T01:31:07.704Z,998.07
2018-03-28T01:32:07.665Z,998.04
2018-03-28T01:33:07.613Z,998.05
2018-03-28T01:34:07.570Z,998.05
2018-03-28T01:35:07.827Z,998.06
2018-03-28T01:36:07.481Z,998.03
2018-03-28T01:37:07.448Z,997.98
2018-03-28T01:38:07.387Z,997.97
2018-03-28T01:39:07.347Z,997.99
2018-03-28T01:40:07.295Z,998.01
2018-03-28T01:41:07.250Z,998.01
2018-03-28T01:42:07.506Z,997.96
2018-03-28T01:43:07.160Z,997.95
2018-03-28T01:44:07.124Z,997.98
2018-03-28T01:45:07.134Z,997.93
2018-03-28T01:46:07.036Z,997.97
2018-03-28T01:47:06.986Z,997.96
2018-03-28T01:48:06.936Z,997.96
2018-03-28T01:49:07.187Z,997.96
2018-03-28T01:50:06.844Z,997.99
2018-03-28T01:51:06.948Z,998.03
2018-03-28T01:52:06.760Z,998.03
2018-03-28T01:53:06.728Z,998.00
2018-03-28T01:54:06.683Z,997.99
2018-03-28T01:55:06.638Z,997.98
2018-03-28T01:56:06.895Z,997.96
2018-03-28T01:57:06.598Z,997.95
2018-03-28T01:58:06.502Z,997.97
2018-03-28T01:59:06.456Z,997.92
2018-03-28T02:00:06.420Z,997.90
2018-03-28T02:01:06.377Z,997.94
2018-03-28T02:02:06.331Z,997.93
2018-03-28T02:03:06.565Z,997.92
2018-03-28T02:04:06.220Z,997.92
2018-03-28T02:05:06.174Z,997.94
2018-03-28T02:06:06.136Z,997.91
2018-03-28T02:07:06.085Z,997.89
2018-03-28T02:08:06.039Z,997.95
2018-03-28T02:09:06.295Z,997.97
2018-03-28T02:10:05.949Z,997.96
2018-03-28T02:11:05.906Z,997.92
2018-03-28T02:12:05.911Z,997.99
2018-03-28T02:13:05.815Z,997.98
2018-03-28T02:14:05.767Z,997.98
2018-03-28T02:15:06.022Z,998.01
2018-03-28T02:16:05.670Z,997.98
2018-03-28T02:17:05.622Z,997.97
2018-03-28T02:18:05.577Z,997.99
2018-03-28T02:19:05.530Z,998.01
2018-03-28T02:20:05.491Z,997.99
2018-03-28T02:21:05.739Z,997.95
2018-03-28T02:22:05.396Z,997.98
2018-03-28T02:23:05.351Z,997.94
2018-03-28T02:24:05.321Z,997.92
2018-03-28T02:25:05.261Z,997.93
2018-03-28T02:26:05.215Z,997.92
2018-03-28T02:27:05.477Z,997.98
2018-03-28T02:28:05.174Z,997.91
2018-03-28T02:29:05.079Z,997.92
2018-03-28T02:30:05.038Z,997.93
2018-03-28T02:31:04.989Z,997.90
2018-03-28T02:32:04.942Z,997.85
2018-03-28T02:33:05.199Z,997.87
2018-03-28T02:34:04.929Z,997.90
2018-03-28T02:35:04.828Z,997.88
2018-03-28T02:36:04.783Z,997.89
2018-03-28T02:37:04.739Z,997.81
2018-03-28T02:38:04.694Z,997.88
2018-03-28T02:39:04.948Z,997.86
2018-03-28T02:40:04.655Z,997.85
2018-03-28T02:41:04.572Z,997.87
2018-03-28T02:42:04.515Z,997.84
2018-03-28T02:43:04.451Z,997.88
2018-03-28T02:44:04.405Z,997.91
2018-03-28T02:45:04.356Z,997.89
2018-03-28T02:46:04.615Z,997.78
2018-03-28T02:47:04.276Z,997.86
2018-03-28T02:48:04.230Z,997.83
2018-03-28T02:49:04.186Z,997.78
2018-03-28T02:50:04.144Z,997.82
2018-03-28T02:51:04.248Z,997.84
2018-03-28T02:52:04.054Z,997.77
2018-03-28T02:53:04.307Z,997.81
2018-03-28T02:54:03.963Z,997.77
2018-03-28T02:55:03.917Z,997.76
2018-03-28T02:56:03.862Z,997.75
2018-03-28T02:57:04.118Z,997.75
2018-03-28T02:58:03.773Z,997.77
2018-03-28T02:59:03.728Z,997.75
2018-03-28T03:00:03.983Z,997.75
2018-03-28T03:01:03.648Z,997.69
2018-03-28T03:02:03.643Z,997.72
2018-03-28T03:03:03.574Z,997.68
2018-03-28T03:04:03.513Z,997.70
2018-03-28T03:05:03.469Z,997.64
2018-03-28T03:06:03.422Z,997.68
2018-03-28T03:07:03.677Z,997.63
2018-03-28T03:08:03.381Z,997.67
2018-03-28T03:09:03.290Z,997.64
2018-03-28T03:10:03.241Z,997.66
2018-03-28T03:11:03.197Z,997.63
2018-03-28T03:12:03.150Z,997.66
2018-03-28T03:13:03.107Z,997.65
2018-03-28T03:14:03.611Z,997.66
2018-03-28T03:15:03.019Z,997.63
2018-03-28T03:16:02.981Z,997.63
2018-03-28T03:17:02.926Z,997.63
2018-03-28T03:18:02.885Z,997.60
2018-03-28T03:19:02.835Z,997.57
2018-03-28T03:20:02.830Z,997.59
2018-03-28T03:21:03.037Z,997.61
2018-03-28T03:22:02.691Z,997.60
2018-03-28T03:23:02.650Z,997.65
2018-03-28T03:24:02.604Z,997.62
2018-03-28T03:25:02.567Z,997.67
2018-03-28T03:26:02.515Z,997.64
2018-03-28T03:27:02.771Z,997.66
2018-03-28T03:28:02.432Z,997.69
2018-03-28T03:29:02.388Z,997.72
2018-03-28T03:30:02.341Z,997.69
2018-03-28T03:31:02.300Z,997.68
2018-03-28T03:32:02.272Z,997.66
2018-03-28T03:33:02.514Z,997.68
2018-03-28T03:34:02.163Z,997.62
2018-03-28T03:35:02.116Z,997.61
2018-03-28T03:36:02.214Z,997.62
2018-03-28T03:37:02.078Z,997.58
2018-03-28T03:38:01.972Z,997.63
2018-03-28T03:39:02.227Z,997.60
2018-03-28T03:40:01.900Z,997.62
2018-03-28T03:41:01.841Z,997.60
2018-03-28T03:42:01.843Z,997.56
2018-03-28T03:43:01.746Z,997.57
2018-03-28T03:44:01.701Z,997.59
2018-03-28T03:45:01.966Z,997.58
2018-03-28T03:46:01.621Z,997.59
2018-03-28T03:47:01.599Z,997.60
2018-03-28T03:48:01.618Z,997.59
2018-03-28T03:49:01.481Z,997.57
2018-03-28T03:50:01.431Z,997.60
2018-03-28T03:51:01.387Z,997.62
2018-03-28T03:52:01.652Z,997.56
2018-03-28T03:53:01.360Z,997.57
2018-03-28T03:54:01.267Z,997.52
2018-03-28T03:55:01.225Z,997.57
2018-03-28T03:56:01.177Z,997.55
2018-03-28T03:57:01.127Z,997.60
2018-03-28T03:58:01.083Z,997.54
2018-03-28T03:59:01.342Z,997.55
2018-03-28T04:00:00.988Z,997.53
2018-03-28T04:01:00.939Z,997.56
2018-03-28T04:02:00.895Z,997.53
2018-03-28T04:03:00.847Z,997.54
2018-03-28T04:04:01.102Z,997.51
2018-03-28T04:05:00.762Z,997.48
2018-03-28T04:06:01.017Z,997.49
2018-03-28T04:07:00.667Z,997.48
2018-03-28T04:08:00.635Z,997.44
2018-03-28T04:09:00.599Z,997.49
2018-03-28T04:10:00.593Z,997.47
2018-03-28T04:11:00.499Z,997.47
2018-03-28T04:12:00.453Z,997.44
2018-03-28T04:13:00.708Z,997.47
2018-03-28T04:14:00.364Z,997.45
2018-03-28T04:15:00.327Z,997.42
2018-03-28T04:16:00.275Z,997.41
2018-03-28T04:17:00.229Z,997.43
2018-03-28T04:18:00.182Z,997.42
2018-03-28T04:19:00.140Z,997.43
2018-03-28T04:20:00.400Z,997.45
2018-03-28T04:21:00.057Z,997.45
2018-03-28T04:22:00.013Z,997.46
2018-03-28T04:22:59.959Z,997.43
2018-03-28T04:23:59.907Z,997.40
2018-03-28T04:24:59.857Z,997.38
2018-03-28T04:25:59.813Z,997.40
2018-03-28T04:27:00.081Z,997.34
2018-03-28T04:27:59.724Z,997.34
2018-03-28T04:28:59.684Z,997.34
2018-03-28T04:29:59.669Z,997.33
2018-03-28T04:30:59.738Z,997.34
2018-03-28T04:31:59.554Z,997.36
2018-03-28T04:32:59.812Z,997.35
2018-03-28T04:33:59.462Z,997.32
2018-03-28T04:34:59.422Z,997.35
2018-03-28T04:35:59.373Z,997.35
2018-03-28T04:36:59.334Z,997.36
2018-03-28T04:37:59.284Z,997.41
2018-03-28T04:38:59.540Z,997.39
2018-03-28T04:39:59.182Z,997.38
2018-03-28T04:40:59.144Z,997.41
2018-03-28T04:41:59.093Z,997.41
2018-03-28T04:42:59.097Z,997.40
2018-03-28T04:43:59.006Z,997.44
2018-03-28T04:44:59.262Z,997.44
2018-03-28T04:45:58.912Z,997.42
2018-03-28T04:46:58.872Z,997.42
2018-03-28T04:47:58.822Z,997.46
2018-03-28T04:48:58.783Z,997.46
2018-03-28T04:49:58.734Z,997.48
2018-03-28T04:50:58.992Z,997.49
2018-03-28T04:51:58.642Z,997.48
2018-03-28T04:52:58.603Z,997.47
2018-03-28T04:53:58.553Z,997.51
2018-03-28T04:54:58.513Z,997.45
2018-03-28T04:55:58.473Z,997.54
2018-03-28T04:56:58.928Z,997.49
2018-03-28T04:57:58.383Z,997.45
2018-03-28T04:58:58.338Z,997.50
2018-03-28T04:59:58.291Z,997.46
2018-03-28T05:00:58.246Z,997.49
2018-03-28T05:01:58.330Z,997.51
2018-03-28T05:02:58.690Z,997.49
2018-03-28T05:03:58.408Z,997.53
2018-03-28T05:04:59.320Z,997.49
2018-03-28T05:05:58.129Z,997.51
2018-03-28T05:06:58.710Z,997.55
2018-03-28T05:07:58.253Z,997.51
2018-03-28T05:08:57.880Z,997.50
2018-03-28T05:09:57.830Z,997.52
2018-03-28T05:10:58.089Z,997.51
2018-03-28T05:11:57.750Z,997.49
2018-03-28T05:12:57.706Z,997.47
2018-03-28T05:13:57.660Z,997.50
2018-03-28T05:14:57.617Z,997.45
2018-03-28T05:15:57.573Z,997.43
2018-03-28T05:16:57.526Z,997.52
2018-03-28T05:17:57.783Z,997.49
2018-03-28T05:18:57.438Z,997.52
2018-03-28T05:19:57.387Z,997.52
2018-03-28T05:20:57.354Z,997.54
2018-03-28T05:21:57.305Z,997.51
2018-03-28T05:22:57.254Z,997.55
2018-03-28T05:23:57.210Z,997.58
2018-03-28T05:24:57.465Z,997.52
2018-03-28T05:25:57.121Z,997.55
2018-03-28T05:26:57.075Z,997.52
2018-03-28T05:27:57.021Z,997.52
2018-03-28T05:28:57.052Z,997.51
2018-03-28T05:29:56.928Z,997.52
2018-03-28T05:30:56.884Z,997.52
2018-03-28T05:31:57.147Z,997.55
2018-03-28T05:32:56.792Z,997.54
2018-03-28T05:33:56.747Z,997.57
2018-03-28T05:34:56.709Z,997.55
2018-03-28T05:35:56.670Z,997.57
2018-03-28T05:36:56.623Z,997.56
2018-03-28T05:37:56.584Z,997.58
2018-03-28T05:38:56.841Z,997.58
2018-03-28T05:39:56.600Z,997.58
2018-03-28T05:40:56.437Z,997.58
2018-03-28T05:41:56.395Z,997.58
2018-03-28T05:42:56.356Z,997.61
2018-03-28T05:43:56.295Z,997.60
2018-03-28T05:44:57.340Z,997.60
2018-03-28T05:45:56.705Z,997.55
2018-03-28T05:46:56.560Z,997.55
2018-03-28T05:47:56.593Z,997.53
2018-03-28T05:48:56.065Z,997.50
2018-03-28T05:49:56.032Z,997.53
2018-03-28T05:50:56.275Z,997.60
2018-03-28T05:51:56.176Z,997.55
2018-03-28T05:52:55.888Z,997.58
2018-03-28T05:53:55.841Z,997.57
2018-03-28T05:54:56.139Z,997.55
2018-03-28T05:55:55.798Z,997.56
2018-03-28T05:56:56.054Z,997.52
2018-03-28T05:57:55.659Z,997.54
2018-03-28T05:58:55.811Z,997.50
2018-03-28T05:59:55.601Z,997.51
2018-03-28T06:00:55.533Z,997.54
2018-03-28T06:01:55.493Z,997.51
2018-03-28T06:02:55.741Z,997.52
2018-03-28T06:03:55.448Z,997.56
2018-03-28T06:04:55.349Z,997.54
2018-03-28T06:05:55.460Z,997.56
2018-03-28T06:06:55.263Z,997.56
2018-03-28T06:07:55.269Z,997.52
2018-03-28T06:08:55.481Z,997.55
2018-03-28T06:09:55.125Z,997.57
2018-03-28T06:10:55.131Z,997.59
2018-03-28T06:11:55.034Z,997.57
2018-03-28T06:12:55.188Z,997.56
2018-03-28T06:13:54.961Z,997.58
2018-03-28T06:14:54.898Z,997.56
2018-03-28T06:15:55.144Z,997.53
2018-03-28T06:16:54.799Z,997.57
2018-03-28T06:17:54.862Z,997.51
2018-03-28T06:18:54.709Z,997.56
2018-03-28T06:19:54.762Z,997.51
2018-03-28T06:20:54.673Z,997.56
2018-03-28T06:21:54.573Z,997.55
2018-03-28T06:22:54.877Z,997.52
2018-03-28T06:23:54.781Z,997.53
2018-03-28T06:24:54.437Z,997.54
2018-03-28T06:25:54.447Z,997.49
2018-03-28T06:26:54.346Z,997.49
2018-03-28T06:27:54.501Z,997.43
2018-03-28T06:28:54.262Z,997.44
2018-03-28T06:29:54.517Z,997.41
2018-03-28T06:30:54.219Z,997.41
2018-03-28T06:31:54.135Z,997.37
2018-03-28T06:32:54.136Z,997.39
2018-03-28T06:33:54.094Z,997.39
2018-03-28T06:34:53.999Z,997.41
2018-03-28T06:35:54.254Z,997.41
2018-03-28T06:36:54.205Z,997.36
2018-03-28T06:37:54.010Z,997.34
2018-03-28T06:38:54.121Z,997.35
2018-03-28T06:39:53.771Z,997.35
2018-03-28T06:40:53.767Z,997.31
2018-03-28T06:41:53.673Z,997.32
2018-03-28T06:42:53.774Z,997.36
2018-03-28T06:43:53.880Z,997.34
2018-03-28T06:44:53.532Z,997.32
2018-03-28T06:45:53.796Z,997.32
2018-03-28T06:46:53.444Z,997.29
2018-03-28T06:47:53.458Z,997.32
2018-03-28T06:49:53.625Z,997.36
2018-03-28T06:50:53.631Z,997.34
2018-03-28T06:51:53.280Z,997.33
2018-03-28T06:52:53.181Z,997.34
2018-03-28T06:53:53.188Z,997.31
2018-03-28T06:54:53.151Z,997.31
2018-03-28T06:55:53.047Z,997.33
2018-03-28T06:56:53.353Z,997.32
2018-03-28T06:57:53.007Z,997.30
2018-03-28T06:58:52.967Z,997.30
2018-03-28T06:59:53.070Z,997.29
2018-03-28T07:00:52.822Z,997.35
2018-03-28T07:01:52.827Z,997.30
2018-03-28T07:02:53.032Z,997.37
2018-03-28T07:03:52.786Z,997.39
2018-03-28T07:04:52.684Z,997.35
2018-03-28T07:05:52.586Z,997.35
2018-03-28T07:06:52.701Z,997.33
2018-03-28T07:07:52.936Z,997.34
2018-03-28T07:08:52.842Z,997.31
2018-03-28T07:09:52.500Z,997.34
2018-03-28T07:10:52.452Z,997.33
2018-03-28T07:11:52.344Z,997.29
2018-03-28T07:12:52.388Z,997.29
2018-03-28T07:13:52.282Z,997.29
2018-03-28T07:14:52.540Z,997.20
2018-03-28T07:15:52.146Z,997.25
2018-03-28T07:16:52.200Z,997.23
2018-03-28T07:17:52.102Z,997.25
2018-03-28T07:18:52.018Z,997.21
2018-03-28T07:19:52.067Z,997.20
2018-03-28T07:20:52.215Z,997.22
2018-03-28T07:21:52.062Z,997.25
2018-03-28T07:22:51.968Z,997.21
2018-03-28T07:23:51.823Z,997.23
2018-03-28T07:24:51.928Z,997.18
2018-03-28T07:25:51.681Z,997.15
2018-03-28T07:26:51.791Z,997.16
2018-03-28T07:27:52.057Z,997.13
2018-03-28T07:28:52.032Z,997.11
2018-03-28T07:29:51.657Z,997.14
2018-03-28T07:30:51.454Z,997.15
2018-03-28T07:31:51.459Z,997.18
2018-03-28T07:32:51.451Z,997.16
2018-03-28T07:33:51.389Z,997.19
2018-03-28T07:34:51.772Z,997.21
2018-03-28T07:35:51.290Z,997.24
2018-03-28T07:36:51.293Z,997.28
2018-03-28T07:37:51.388Z,997.25
2018-03-28T07:38:51.228Z,997.20
2018-03-28T07:39:51.430Z,997.23
2018-03-28T07:40:51.146Z,997.28
2018-03-28T07:41:51.315Z,997.27
2018-03-28T07:42:51.025Z,997.27
2018-03-28T07:43:50.996Z,997.21
2018-03-28T07:44:51.060Z,997.23
2018-03-28T07:45:50.905Z,997.19
2018-03-28T07:46:50.838Z,997.20
2018-03-28T07:47:50.734Z,997.17
2018-03-28T07:48:50.940Z,997.14
2018-03-28T07:49:50.646Z,997.07
2018-03-28T07:50:50.601Z,997.01
2018-03-28T07:51:50.559Z,997.03
2018-03-28T07:52:50.672Z,997.05
2018-03-28T07:53:50.442Z,997.04
2018-03-28T07:54:50.529Z,997.00
2018-03-28T07:55:50.734Z,997.01
2018-03-28T07:56:50.460Z,997.02
2018-03-28T07:57:50.293Z,996.97
2018-03-28T07:58:50.202Z,997.03
2018-03-28T07:59:50.457Z,997.03
2018-03-28T08:00:50.216Z,997.05
2018-03-28T08:01:50.238Z,997.03
2018-03-28T08:02:50.407Z,997.07
2018-03-28T08:03:50.069Z,997.07
2018-03-28T08:04:49.990Z,997.08
2018-03-28T08:05:49.943Z,997.08
2018-03-28T08:06:49.906Z,997.13
2018-03-28T08:07:50.000Z,997.07
2018-03-28T08:08:50.050Z,997.08
2018-03-28T08:09:49.851Z,997.12
2018-03-28T08:10:49.805Z,997.09
2018-03-28T08:11:49.763Z,997.08
2018-03-28T08:12:49.721Z,997.08
2018-03-28T08:13:49.522Z,997.07
2018-03-28T08:14:50.034Z,997.10
2018-03-28T08:15:49.755Z,997.09
2018-03-28T08:16:49.454Z,997.12
2018-03-28T08:17:49.408Z,997.14
2018-03-28T08:18:49.311Z,997.11
2018-03-28T08:19:49.315Z,997.12
2018-03-28T08:20:49.522Z,997.10
2018-03-28T08:21:49.228Z,997.12
2018-03-28T08:22:49.182Z,997.12
2018-03-28T08:23:49.086Z,997.07
2018-03-28T08:24:49.183Z,997.09
2018-03-28T08:25:49.039Z,997.07
2018-03-28T08:26:49.301Z,997.06
2018-03-28T08:27:48.948Z,997.06
2018-03-28T08:28:48.856Z,997.07
2018-03-28T08:29:48.960Z,997.04
2018-03-28T08:30:48.817Z,997.06
2018-03-28T08:31:48.769Z,997.06
2018-03-28T08:32:49.036Z,997.06
2018-03-28T08:33:48.633Z,997.04
2018-03-28T08:34:48.641Z,997.03
2018-03-28T08:35:48.701Z,997.03
2018-03-28T08:36:48.801Z,996.99
2018-03-28T08:37:48.509Z,997.02
2018-03-28T08:38:48.413Z,996.98
2018-03-28T08:39:48.670Z,996.98
2018-03-28T08:40:48.434Z,996.98
2018-03-28T08:41:48.340Z,996.96
2018-03-28T08:42:48.394Z,996.94
2018-03-28T08:43:48.198Z,996.91
2018-03-28T08:44:48.211Z,996.94
2018-03-28T08:45:48.316Z,996.98
2018-03-28T08:46:48.368Z,996.96
2018-03-28T08:47:48.076Z,996.97
2018-03-28T08:48:47.969Z,996.93
2018-03-28T08:49:47.972Z,996.99
2018-03-28T08:50:47.932Z,997.00
2018-03-28T08:51:47.889Z,996.98
2018-03-28T08:52:47.853Z,996.96
2018-03-28T08:53:48.047Z,997.01
2018-03-28T08:54:47.758Z,996.98
2018-03-28T08:55:47.860Z,996.96
2018-03-28T08:56:47.624Z,997.01
2018-03-28T08:57:47.633Z,996.96
2018-03-28T08:58:47.535Z,996.96
2018-03-28T08:59:47.544Z,996.92
2018-03-28T09:00:47.646Z,996.93
2018-03-28T09:01:47.453Z,996.94
2018-03-28T09:02:47.409Z,996.97
2018-03-28T09:03:47.313Z,996.94
2018-03-28T09:04:47.470Z,996.96
2018-03-28T09:05:47.424Z,996.97
2018-03-28T09:06:47.485Z,996.93
2018-03-28T09:07:47.187Z,996.93
2018-03-28T09:08:47.094Z,996.95
2018-03-28T09:09:47.096Z,996.95
2018-03-28T09:10:47.056Z,996.91
2018-03-28T09:11:46.964Z,996.90
2018-03-28T09:12:46.963Z,996.93
2018-03-28T09:13:47.162Z,996.85
2018-03-28T09:14:46.869Z,996.91
2018-03-28T09:15:46.975Z,996.87
2018-03-28T09:16:46.733Z,996.88
2018-03-28T09:17:46.759Z,996.87
2018-03-28T09:18:46.644Z,996.82
2018-03-28T09:19:46.904Z,996.79
2018-03-28T09:20:46.620Z,996.78
2018-03-28T09:21:46.525Z,996.89
2018-03-28T09:22:46.687Z,996.90
2018-03-28T09:23:46.439Z,996.85
2018-03-28T09:24:46.447Z,996.81
2018-03-28T09:25:46.861Z,996.78
2018-03-28T09:26:46.397Z,996.81
2018-03-28T09:27:46.341Z,996.86
2018-03-28T09:28:46.268Z,996.90
2018-03-28T09:29:46.277Z,996.87
2018-03-28T09:30:46.335Z,996.80
2018-03-28T09:31:46.396Z,996.89
2018-03-28T09:32:46.106Z,996.80
2018-03-28T09:33:46.069Z,996.81
2018-03-28T09:34:46.025Z,996.79
2018-03-28T09:35:46.085Z,996.72
2018-03-28T09:36:45.892Z,996.81
2018-03-28T09:37:46.254Z,996.78
2018-03-28T09:38:45.965Z,996.74
2018-03-28T09:39:45.828Z,996.78
2018-03-28T09:40:46.040Z,996.77
2018-03-28T09:41:45.697Z,996.71
2018-03-28T09:42:45.704Z,996.73
2018-03-28T09:43:45.966Z,996.71
2018-03-28T09:44:45.789Z,996.70
2018-03-28T09:45:45.604Z,996.68
2018-03-28T09:46:45.508Z,996.61
2018-03-28T09:47:45.516Z,996.57
2018-03-28T09:48:45.475Z,996.59
2018-03-28T09:49:45.432Z,996.53
2018-03-28T09:50:45.694Z,996.55
2018-03-28T09:51:45.306Z,996.48
2018-03-28T09:52:45.552Z,996.50
2018-03-28T09:53:45.261Z,996.42
2018-03-28T09:54:45.319Z,996.47
2018-03-28T09:55:45.178Z,996.45
2018-03-28T09:56:45.088Z,996.47
2018-03-28T09:57:45.454Z,996.52
2018-03-28T09:58:45.410Z,996.49
2018-03-28T09:59:45.013Z,996.52
2018-03-28T10:00:44.981Z,996.49
2018-03-28T10:01:44.891Z,996.49
2018-03-28T10:02:45.054Z,996.54
2018-03-28T10:03:44.959Z,996.51
2018-03-28T10:04:45.115Z,996.46
2018-03-28T10:05:44.772Z,996.52
2018-03-28T10:06:44.680Z,996.49
2018-03-28T10:07:44.690Z,996.44
2018-03-28T10:08:44.748Z,996.44
2018-03-28T10:09:44.603Z,996.45
2018-03-28T10:10:44.664Z,996.45
2018-03-28T10:11:44.767Z,996.47
2018-03-28T10:12:44.741Z,996.50
2018-03-28T10:13:44.434Z,996.50
2018-03-28T10:14:44.392Z,996.51
2018-03-28T10:15:44.391Z,996.48
2018-03-28T10:16:44.244Z,996.45
2018-03-28T10:17:44.250Z,996.44
2018-03-28T10:18:44.459Z,996.39
2018-03-28T10:19:44.118Z,996.41
2018-03-28T10:20:44.122Z,996.37
2018-03-28T10:21:44.029Z,996.37
2018-03-28T10:22:44.036Z,996.38
2018-03-28T10:23:43.996Z,996.40
2018-03-28T10:24:44.110Z,996.36
2018-03-28T10:25:44.225Z,996.38
2018-03-28T10:26:43.826Z,996.39
2018-03-28T10:27:43.832Z,996.32
2018-03-28T10:28:43.796Z,996.35
2018-03-28T10:29:43.747Z,996.40
2018-03-28T10:30:43.955Z,996.39
2018-03-28T10:31:43.913Z,996.37
2018-03-28T10:32:43.665Z,996.39
2018-03-28T10:33:43.579Z,996.34
2018-03-28T10:34:43.475Z,996.34
2018-03-28T10:35:43.485Z,996.35
2018-03-28T10:36:43.392Z,996.35
2018-03-28T10:37:43.699Z,996.33
2018-03-28T10:38:43.519Z,996.32
2018-03-28T10:39:43.264Z,996.28
2018-03-28T10:40:43.274Z,996.24
2018-03-28T10:41:43.180Z,996.19
2018-03-28T10:42:43.342Z,996.21
2018-03-28T10:43:43.455Z,996.18
2018-03-28T10:44:43.064Z,996.15
2018-03-28T10:45:43.064Z,996.14
2018-03-28T10:46:43.022Z,996.09
2018-03-28T10:47:42.979Z,996.13
2018-03-28T10:48:42.966Z,996.11
2018-03-28T10:49:43.312Z,996.14
2018-03-28T10:50:42.973Z,996.12
2018-03-28T10:51:42.826Z,996.09
2018-03-28T10:52:42.792Z,996.08
2018-03-28T10:53:42.796Z,996.02
2018-03-28T10:54:42.653Z,996.05
2018-03-28T10:55:42.967Z,996.02
2018-03-28T10:56:42.612Z,996.07
2018-03-28T10:57:42.570Z,996.04
2018-03-28T10:58:42.679Z,996.06
2018-03-28T10:59:42.439Z,996.08
2018-03-28T11:00:42.453Z,996.10
2018-03-28T11:01:42.405Z,996.03
2018-03-28T11:02:42.718Z,996.04
2018-03-28T11:03:42.325Z,996.05
2018-03-28T11:04:42.248Z,996.06
2018-03-28T11:05:42.303Z,996.05
2018-03-28T11:06:42.215Z,996.05
2018-03-28T11:07:42.295Z,996.07
2018-03-28T11:08:42.240Z,996.02
2018-03-28T11:09:42.343Z,995.98
2018-03-28T11:10:42.056Z,995.92
2018-03-28T11:11:42.008Z,995.96
2018-03-28T11:12:41.976Z,995.94
2018-03-28T11:13:41.924Z,995.97
2018-03-28T11:14:41.835Z,995.91
2018-03-28T11:15:41.842Z,995.89
2018-03-28T11:16:42.101Z,995.93
2018-03-28T11:17:41.870Z,995.88
2018-03-28T11:18:41.723Z,995.90
2018-03-28T11:19:41.699Z,995.88
2018-03-28T11:20:41.626Z,995.85
2018-03-28T11:21:41.737Z,995.84
2018-03-28T11:22:41.706Z,995.83
2018-03-28T11:23:41.803Z,995.78
2018-03-28T11:24:41.419Z,995.79
2018-03-28T11:25:41.522Z,995.76
2018-03-28T11:26:41.537Z,995.82
2018-03-28T11:27:41.341Z,995.81
2018-03-28T11:28:41.414Z,995.80
2018-03-28T11:29:41.224Z,995.75
2018-03-28T11:30:41.482Z,995.81
2018-03-28T11:31:41.195Z,995.79
2018-03-28T11:32:41.195Z,995.73
2018-03-28T11:33:41.206Z,995.74
2018-03-28T11:34:41.015Z,995.69
2018-03-28T11:35:41.031Z,995.66
2018-03-28T11:36:40.973Z,995.69
2018-03-28T11:37:41.233Z,995.66
2018-03-28T11:38:40.902Z,995.64
2018-03-28T11:39:40.804Z,995.60
2018-03-28T11:40:40.816Z,995.59
2018-03-28T11:41:40.771Z,995.59
2018-03-28T11:42:40.733Z,995.55
2018-03-28T11:43:41.092Z,995.53
2018-03-28T11:44:40.650Z,995.62
2018-03-28T11:45:40.614Z,995.54
2018-03-28T11:46:40.568Z,995.56
2018-03-28T11:47:40.706Z,995.54
2018-03-28T11:48:40.584Z,995.59
2018-03-28T11:49:40.691Z,995.53
2018-03-28T11:50:40.399Z,995.52
2018-03-28T11:51:40.361Z,995.51
2018-03-28T11:52:40.327Z,995.50
2018-03-28T11:53:40.386Z,995.49
2018-03-28T11:54:40.247Z,995.52
2018-03-28T11:55:40.606Z,995.53
2018-03-28T11:56:40.262Z,995.60
2018-03-28T11:57:40.172Z,995.53
2018-03-28T11:58:40.084Z,995.52
2018-03-28T11:59:39.988Z,995.46
2018-03-28T12:00:39.988Z,995.47
2018-03-28T12:01:40.297Z,995.40
2018-03-28T12:02:39.921Z,995.37
2018-03-28T12:03:39.861Z,995.40
2018-03-28T12:04:39.826Z,995.29
2018-03-28T12:05:39.977Z,995.34
2018-03-28T12:06:39.887Z,995.29
2018-03-28T12:07:39.994Z,995.28
2018-03-28T12:08:39.662Z,995.28
2018-03-28T12:09:39.578Z,995.29
2018-03-28T12:10:39.740Z,995.29
2018-03-28T12:11:39.638Z,995.26
2018-03-28T12:12:39.500Z,995.23
2018-03-28T12:13:39.454Z,995.23
2018-03-28T12:14:39.667Z,995.16
2018-03-28T12:15:39.415Z,995.20
2018-03-28T12:16:39.339Z,995.25
2018-03-28T12:17:39.291Z,995.28
2018-03-28T12:18:39.249Z,995.16
2018-03-28T12:19:39.156Z,995.21
2018-03-28T12:20:39.313Z,995.17
2018-03-28T12:21:39.519Z,995.16
2018-03-28T12:22:39.082Z,995.18
2018-03-28T12:23:39.037Z,995.16
2018-03-28T12:24:38.932Z,995.10
2018-03-28T12:25:39.050Z,995.15
2018-03-28T12:26:39.157Z,995.10
2018-03-28T12:27:39.006Z,995.08
2018-03-28T12:28:39.111Z,995.10